Weather at Dragon's Fire Heliport

Public forecast

Using degrees Celsius for public forecast. Weather courtesy of forecast.io.

Closest aviation weather report (METAR) to Dragon's Fire Heliport

Closest report is John C. Munro Hamilton International Airport, 12.4 nm (23.0 km) S.

2024/05/20 13:00 (retrieved 27 minutes ago)

CYHM 201300Z 06004KT 15SM SCT060 BKN250 20/15 A3001 RMK SC4CI3 SLP163 DENSITY ALT 1500FT

Closest aviation forecast (TAF) to Dragon's Fire Heliport

Closest forecast is John C. Munro Hamilton International Airport, 12.4 nm (23.0 km) S.

2024/05/20 12:42 (retrieved 45 minutes ago)

TAF CYHM 201140Z 2012/2112 VRB03KT P6SM BKN250 FM201400 09007KT P6SM SCT050 FM201800 18007KT P6SM BKN050 FM202200 19010KT P6SM SCT050 BECMG 2101/2103 16005KT FM210600 18007KT P6SM BKN100 FM211000 21012KT P6SM BKN070 RMK NXT FCST BY 201800Z